createdAt,value
2018-07-07T00:01:37.024Z,18.10
2018-07-07T00:04:05.741Z,18.00
2018-07-07T00:06:34.474Z,17.90
2018-07-07T00:09:03.353Z,17.80
2018-07-07T00:11:32.000Z,17.80
2018-07-07T00:14:00.845Z,17.70
2018-07-07T00:16:29.541Z,17.60
2018-07-07T00:18:58.219Z,17.50
2018-07-07T00:21:26.978Z,17.40
2018-07-07T00:23:55.628Z,17.40
2018-07-07T00:26:24.357Z,17.30
2018-07-07T00:28:53.045Z,17.20
2018-07-07T00:31:21.756Z,17.20
2018-07-07T00:33:50.481Z,17.20
2018-07-07T00:36:19.198Z,17.10
2018-07-07T00:38:47.988Z,17.00
2018-07-07T00:41:16.668Z,16.90
2018-07-07T00:43:45.374Z,16.80
2018-07-07T00:46:14.212Z,16.70
2018-07-07T00:48:42.954Z,16.70
2018-07-07T00:51:11.661Z,16.60
2018-07-07T00:53:40.332Z,16.50
2018-07-07T00:56:09.006Z,16.40
2018-07-07T00:58:37.672Z,16.40
2018-07-07T01:01:06.436Z,16.40
2018-07-07T01:03:35.226Z,16.30
2018-07-07T01:06:04.005Z,16.20
2018-07-07T01:08:32.759Z,16.10
2018-07-07T01:11:01.480Z,16.00
2018-07-07T01:13:30.249Z,15.90
2018-07-07T01:15:58.990Z,15.90
2018-07-07T01:18:27.711Z,15.70
2018-07-07T01:20:56.431Z,15.70
2018-07-07T01:23:25.147Z,15.70
2018-07-07T01:25:53.850Z,15.60
2018-07-07T01:28:22.512Z,15.50
2018-07-07T01:30:51.220Z,15.50
2018-07-07T01:33:19.907Z,15.40
2018-07-07T01:35:48.612Z,15.30
2018-07-07T01:38:17.307Z,15.20
2018-07-07T01:40:46.869Z,15.20
2018-07-07T01:43:15.564Z,15.20
2018-07-07T01:45:44.384Z,15.10
2018-07-07T01:48:13.403Z,15.10
2018-07-07T01:50:42.164Z,15.00
2018-07-07T01:53:10.903Z,15.00
2018-07-07T01:55:39.634Z,14.90
2018-07-07T01:58:08.716Z,14.90
2018-07-07T02:00:39.362Z,14.90
2018-07-07T02:03:08.148Z,14.90
2018-07-07T02:05:36.887Z,14.90
2018-07-07T02:08:05.947Z,14.80
2018-07-07T02:10:34.678Z,14.80
2018-07-07T02:13:03.488Z,14.80
2018-07-07T02:15:32.237Z,14.70
2018-07-07T02:18:01.103Z,14.70
2018-07-07T02:20:29.921Z,14.70
2018-07-07T02:22:58.661Z,14.60
2018-07-07T02:25:27.484Z,14.60
2018-07-07T02:27:56.211Z,14.50
2018-07-07T02:30:25.001Z,14.50
2018-07-07T02:32:53.716Z,14.40
2018-07-07T02:35:22.430Z,14.40
2018-07-07T02:37:51.232Z,14.40
2018-07-07T02:40:19.945Z,14.40
2018-07-07T02:42:48.692Z,14.40
2018-07-07T02:45:17.585Z,14.30
2018-07-07T02:47:46.278Z,14.20
2018-07-07T02:50:15.020Z,14.20
2018-07-07T02:52:43.748Z,14.10
2018-07-07T02:55:12.467Z,14.00
2018-07-07T02:57:41.154Z,14.00
2018-07-07T03:00:09.856Z,13.90
2018-07-07T03:02:38.622Z,13.90
2018-07-07T03:05:07.317Z,13.80
2018-07-07T03:07:36.069Z,13.70
2018-07-07T03:10:04.951Z,13.70
2018-07-07T03:12:33.645Z,13.70
2018-07-07T03:15:02.401Z,13.60
2018-07-07T03:17:31.152Z,13.60
2018-07-07T03:19:59.877Z,13.70
2018-07-07T03:22:28.590Z,13.60
2018-07-07T03:24:57.609Z,13.60
2018-07-07T03:27:26.287Z,13.60
2018-07-07T03:29:55.018Z,13.50
2018-07-07T03:32:23.707Z,13.50
2018-07-07T03:34:52.438Z,13.50
2018-07-07T03:37:21.149Z,13.50
2018-07-07T03:39:49.878Z,13.50
2018-07-07T03:42:18.643Z,13.50
2018-07-07T03:44:47.339Z,13.50
2018-07-07T03:47:16.190Z,13.50
2018-07-07T03:49:44.872Z,13.50
2018-07-07T03:52:13.796Z,13.50
2018-07-07T03:54:42.642Z,13.50
2018-07-07T03:57:11.476Z,13.50
2018-07-07T03:59:40.220Z,13.60
2018-07-07T04:02:09.569Z,13.60
2018-07-07T04:04:39.829Z,13.60
2018-07-07T04:07:09.743Z,13.60
2018-07-07T04:09:38.989Z,13.80
2018-07-07T04:12:07.801Z,13.80
2018-07-07T04:14:36.673Z,13.90
2018-07-07T04:17:05.444Z,14.00
2018-07-07T04:19:34.190Z,14.00
2018-07-07T04:22:02.924Z,14.10
2018-07-07T04:24:31.765Z,14.20
2018-07-07T04:27:00.505Z,14.10
2018-07-07T04:29:29.329Z,14.30
2018-07-07T04:31:58.083Z,14.30
2018-07-07T04:34:26.801Z,14.40
2018-07-07T04:36:55.538Z,14.40
2018-07-07T04:39:24.262Z,14.50
2018-07-07T04:41:53.059Z,14.50
2018-07-07T04:44:21.759Z,14.60
2018-07-07T04:46:50.495Z,14.70
2018-07-07T04:49:19.175Z,14.80
2018-07-07T04:51:47.872Z,15.00
2018-07-07T04:54:16.685Z,15.00
2018-07-07T04:56:45.405Z,15.10
2018-07-07T04:59:14.129Z,15.20
2018-07-07T05:01:42.864Z,15.20
2018-07-07T05:04:11.595Z,15.30
2018-07-07T05:06:40.281Z,15.40
2018-07-07T05:09:09.205Z,15.40
2018-07-07T05:11:37.909Z,15.50
2018-07-07T05:14:06.690Z,15.50
2018-07-07T05:16:35.516Z,15.50
2018-07-07T05:19:04.220Z,15.50
2018-07-07T05:21:32.900Z,15.60
2018-07-07T05:24:01.630Z,15.80
2018-07-07T05:26:30.341Z,15.90
2018-07-07T05:28:59.024Z,15.90
2018-07-07T05:31:27.768Z,16.00
2018-07-07T05:33:56.985Z,16.20
2018-07-07T05:36:25.714Z,16.30
2018-07-07T05:38:54.435Z,16.40
2018-07-07T05:41:23.211Z,16.60
2018-07-07T05:43:52.212Z,16.60
2018-07-07T05:48:49.463Z,16.90
2018-07-07T05:51:18.224Z,17.00
2018-07-07T05:53:47.024Z,17.00
2018-07-07T05:56:15.801Z,17.10
2018-07-07T05:58:44.503Z,17.10
2018-07-07T06:01:13.212Z,17.20
2018-07-07T06:08:38.757Z,17.40
2018-07-07T06:11:07.489Z,17.50
2018-07-07T06:13:36.204Z,17.60
2018-07-07T06:16:04.957Z,17.60
2018-07-07T06:18:33.656Z,17.90
2018-07-07T06:21:02.893Z,17.90
2018-07-07T06:23:31.652Z,18.00
2018-07-07T06:26:00.345Z,18.30
2018-07-07T06:28:29.031Z,18.80
2018-07-07T06:30:57.819Z,19.30
2018-07-07T06:33:26.510Z,19.70
2018-07-07T06:35:55.188Z,19.80
2018-07-07T06:38:23.898Z,20.10
2018-07-07T06:40:52.612Z,20.40
2018-07-07T06:43:21.280Z,20.70
2018-07-07T06:45:49.981Z,21.30
2018-07-07T06:48:18.716Z,22.10
2018-07-07T06:50:47.460Z,22.90
2018-07-07T06:53:16.600Z,23.40
2018-07-07T06:55:45.317Z,24.00
2018-07-07T06:58:14.072Z,24.50
2018-07-07T07:00:42.835Z,24.70
2018-07-07T07:03:11.542Z,25.10
2018-07-07T07:05:40.199Z,24.70
2018-07-07T07:08:08.963Z,24.50
2018-07-07T07:10:37.681Z,24.80
2018-07-07T07:13:06.418Z,25.20
2018-07-07T07:18:03.412Z,25.70
2018-07-07T07:20:32.187Z,25.40
2018-07-07T07:23:00.858Z,25.50
2018-07-07T07:25:29.672Z,25.20
2018-07-07T07:27:58.417Z,25.30
2018-07-07T07:30:27.152Z,25.90
2018-07-07T07:32:55.895Z,26.20
2018-07-07T07:35:24.546Z,27.00
2018-07-07T07:37:53.494Z,27.00
2018-07-07T07:40:22.220Z,26.90
2018-07-07T07:42:50.907Z,27.10
2018-07-07T07:45:19.639Z,26.80
2018-07-07T07:47:48.322Z,26.80
2018-07-07T07:50:17.082Z,27.40
2018-07-07T07:52:45.823Z,27.60
2018-07-07T07:55:14.497Z,27.30
2018-07-07T07:57:43.193Z,27.00
2018-07-07T08:00:11.943Z,27.20
2018-07-07T08:02:40.649Z,26.70
2018-07-07T08:05:12.168Z,26.80
2018-07-07T08:07:41.135Z,27.30
2018-07-07T08:10:09.819Z,27.40
2018-07-07T08:12:38.561Z,27.30
2018-07-07T08:15:07.401Z,27.80
2018-07-07T08:17:36.078Z,27.90
2018-07-07T08:20:04.953Z,28.50
2018-07-07T08:22:33.733Z,28.40
2018-07-07T08:25:02.388Z,28.10
2018-07-07T08:27:32.141Z,28.10
2018-07-07T08:30:00.835Z,27.90
2018-07-07T08:32:31.773Z,27.80
2018-07-07T08:35:00.517Z,28.20
2018-07-07T08:37:29.210Z,28.20
2018-07-07T08:39:57.965Z,28.30
2018-07-07T08:42:26.816Z,29.00
2018-07-07T08:44:55.568Z,28.70
2018-07-07T08:47:24.322Z,28.40
2018-07-07T08:49:53.019Z,28.90
2018-07-07T08:52:21.673Z,29.40
2018-07-07T08:54:50.416Z,28.80
2018-07-07T08:57:19.140Z,29.00
2018-07-07T08:59:47.826Z,29.20
2018-07-07T09:02:16.558Z,28.90
2018-07-07T09:04:46.005Z,29.00
2018-07-07T09:07:14.666Z,28.20
2018-07-07T09:09:43.403Z,29.10
2018-07-07T09:12:12.120Z,29.10
2018-07-07T09:14:40.829Z,29.10
2018-07-07T09:17:09.639Z,29.60
2018-07-07T09:19:38.439Z,29.20
2018-07-07T09:22:07.659Z,29.40
2018-07-07T09:24:36.452Z,29.70
2018-07-07T09:27:05.238Z,29.80
2018-07-07T09:29:34.153Z,29.60
2018-07-07T09:32:02.889Z,30.60
2018-07-07T09:34:31.542Z,30.20
2018-07-07T09:37:00.220Z,29.80
2018-07-07T09:39:29.023Z,29.80
2018-07-07T09:41:57.876Z,30.10
2018-07-07T09:44:26.600Z,29.80
2018-07-07T09:46:55.615Z,30.10
2018-07-07T09:49:24.306Z,30.30
2018-07-07T09:51:53.069Z,30.20
2018-07-07T09:54:21.890Z,30.20
2018-07-07T09:56:50.891Z,30.40
2018-07-07T09:59:19.534Z,30.30
2018-07-07T10:01:48.280Z,30.90
2018-07-07T10:04:16.980Z,30.90
2018-07-07T10:06:45.682Z,30.80
2018-07-07T10:09:14.479Z,30.40
2018-07-07T10:11:43.264Z,30.50
2018-07-07T10:14:11.953Z,30.30
2018-07-07T10:16:40.700Z,30.40
2018-07-07T10:19:09.448Z,30.40
2018-07-07T10:21:38.162Z,30.30
2018-07-07T10:24:06.936Z,30.90
2018-07-07T10:26:35.676Z,30.70
2018-07-07T10:29:04.355Z,30.60
2018-07-07T10:31:33.470Z,30.20
2018-07-07T10:34:03.035Z,30.20
2018-07-07T10:36:31.921Z,30.60
2018-07-07T10:39:00.757Z,30.50
2018-07-07T10:41:37.265Z,30.00
2018-07-07T10:44:06.421Z,30.20
2018-07-07T10:46:35.125Z,30.40
2018-07-07T10:49:03.839Z,30.20
2018-07-07T10:51:32.567Z,30.40
2018-07-07T10:54:01.263Z,29.80
2018-07-07T10:56:29.946Z,29.10
2018-07-07T10:58:58.638Z,28.40
2018-07-07T11:01:27.330Z,27.90
2018-07-07T11:03:56.021Z,27.40
2018-07-07T11:06:24.785Z,27.70
2018-07-07T11:08:53.549Z,28.20
2018-07-07T11:11:22.230Z,28.30
2018-07-07T11:13:50.925Z,28.40
2018-07-07T11:16:19.617Z,28.60
2018-07-07T11:18:48.319Z,28.10
2018-07-07T11:21:17.190Z,28.40
2018-07-07T11:23:46.948Z,28.40
2018-07-07T11:26:15.913Z,28.60
2018-07-07T11:28:44.602Z,28.70
2018-07-07T11:31:13.408Z,28.90
2018-07-07T11:33:42.197Z,28.90
2018-07-07T11:36:11.057Z,28.60
2018-07-07T11:38:39.790Z,28.70
2018-07-07T11:41:08.673Z,28.80
2018-07-07T11:43:37.573Z,28.90
2018-07-07T11:46:06.320Z,29.10
2018-07-07T11:48:35.376Z,29.20
2018-07-07T11:51:04.085Z,29.30
2018-07-07T11:53:32.781Z,28.60
2018-07-07T11:56:01.459Z,27.50
2018-07-07T11:58:30.159Z,27.30
2018-07-07T12:00:58.856Z,26.60
2018-07-07T12:03:27.597Z,26.50
2018-07-07T12:05:56.305Z,26.70
2018-07-07T12:08:25.036Z,26.60
2018-07-07T12:10:53.696Z,26.70
2018-07-07T12:13:22.407Z,26.60
2018-07-07T12:15:51.065Z,26.50
2018-07-07T12:18:19.751Z,26.60
2018-07-07T12:20:48.468Z,26.80
2018-07-07T12:23:17.174Z,26.80
2018-07-07T12:25:45.880Z,26.90
2018-07-07T12:28:14.581Z,27.00
2018-07-07T12:30:43.287Z,26.70
2018-07-07T12:33:11.991Z,26.60
2018-07-07T12:35:40.688Z,26.50
2018-07-07T12:38:09.416Z,26.60
2018-07-07T12:40:38.132Z,26.70
2018-07-07T12:43:06.932Z,26.80
2018-07-07T12:45:35.633Z,26.90
2018-07-07T12:48:04.496Z,26.80
2018-07-07T12:50:33.285Z,26.80
2018-07-07T12:53:02.022Z,26.70
2018-07-07T12:55:30.697Z,26.70
2018-07-07T12:57:59.720Z,26.70
2018-07-07T13:00:28.393Z,26.70
2018-07-07T13:02:57.161Z,26.70
2018-07-07T13:05:27.885Z,26.80
2018-07-07T13:07:57.237Z,26.60
2018-07-07T13:10:26.077Z,26.70
2018-07-07T13:12:54.789Z,26.60
2018-07-07T13:15:23.621Z,26.40
2018-07-07T13:17:52.368Z,26.50
2018-07-07T13:20:21.121Z,26.70
2018-07-07T13:22:50.013Z,26.80
2018-07-07T13:25:18.684Z,26.50
2018-07-07T13:27:47.458Z,26.30
2018-07-07T13:30:16.181Z,26.10
2018-07-07T13:32:44.870Z,26.30
2018-07-07T13:35:13.624Z,26.50
2018-07-07T13:40:10.612Z,26.90
2018-07-07T13:42:39.629Z,26.90
2018-07-07T13:45:08.336Z,27.00
2018-07-07T13:47:37.145Z,27.00
2018-07-07T13:50:05.888Z,26.90
2018-07-07T13:52:34.615Z,26.70
2018-07-07T13:55:03.890Z,26.60
2018-07-07T13:57:32.692Z,26.60
2018-07-07T14:00:01.432Z,26.60
2018-07-07T14:02:30.103Z,26.60
2018-07-07T14:04:58.872Z,26.50
2018-07-07T14:07:27.569Z,26.20
2018-07-07T14:09:56.242Z,26.10
2018-07-07T14:14:53.629Z,26.20
2018-07-07T14:17:22.380Z,26.20
2018-07-07T14:19:51.075Z,26.10
2018-07-07T14:22:19.771Z,25.90
2018-07-07T14:24:48.518Z,26.00
2018-07-07T14:27:17.226Z,26.10
2018-07-07T14:29:50.271Z,26.20
2018-07-07T14:32:18.931Z,26.20
2018-07-07T14:34:47.585Z,26.10
2018-07-07T14:37:16.299Z,26.00
2018-07-07T14:40:00.416Z,26.10
2018-07-07T14:42:48.821Z,26.10
2018-07-07T14:45:22.942Z,26.00
2018-07-07T14:47:54.304Z,26.00
2018-07-07T14:50:23.534Z,26.00
2018-07-07T14:52:52.424Z,26.00
2018-07-07T14:55:22.456Z,26.10
2018-07-07T14:57:51.307Z,26.10
2018-07-07T15:00:24.358Z,26.10
2018-07-07T15:02:54.295Z,26.20
2018-07-07T15:05:23.047Z,26.30
2018-07-07T15:07:51.918Z,26.30
2018-07-07T15:10:20.672Z,26.40
2018-07-07T15:12:49.697Z,26.50
2018-07-07T15:15:18.473Z,26.40
2018-07-07T15:17:47.641Z,26.50
2018-07-07T15:20:16.330Z,26.50
2018-07-07T15:22:45.098Z,26.50
2018-07-07T15:25:13.783Z,26.40
2018-07-07T15:27:42.527Z,26.40
2018-07-07T15:30:11.399Z,26.50
2018-07-07T15:32:40.128Z,26.50
2018-07-07T15:35:08.795Z,26.40
2018-07-07T15:37:37.503Z,26.20
2018-07-07T15:40:06.722Z,26.10
2018-07-07T15:42:35.428Z,26.00
2018-07-07T15:45:04.220Z,26.00
2018-07-07T15:47:33.037Z,26.00
2018-07-07T15:50:01.740Z,26.10
2018-07-07T15:52:30.481Z,26.00
2018-07-07T15:54:59.271Z,26.10
2018-07-07T15:57:27.938Z,26.20
2018-07-07T15:59:56.730Z,26.10
2018-07-07T16:02:25.910Z,26.10
2018-07-07T16:04:54.761Z,26.10
2018-07-07T16:07:24.242Z,26.30
2018-07-07T16:09:52.991Z,26.50
2018-07-07T16:12:21.684Z,26.60
2018-07-07T16:14:50.376Z,26.60
2018-07-07T16:17:19.115Z,26.60
2018-07-07T16:19:47.828Z,26.60
2018-07-07T16:22:16.567Z,26.60
2018-07-07T16:24:45.314Z,26.50
2018-07-07T16:27:14.229Z,26.30
2018-07-07T16:29:43.030Z,26.30
2018-07-07T16:32:12.429Z,26.20
2018-07-07T16:34:41.204Z,26.10
2018-07-07T16:37:09.926Z,26.00
2018-07-07T16:39:38.654Z,25.90
2018-07-07T16:42:07.345Z,25.90
2018-07-07T16:44:37.409Z,25.90
2018-07-07T16:47:06.216Z,25.90
2018-07-07T16:49:35.052Z,25.80
2018-07-07T16:52:04.020Z,25.70
2018-07-07T16:54:32.841Z,25.70
2018-07-07T16:57:01.656Z,25.60
2018-07-07T16:59:31.193Z,25.60
2018-07-07T17:02:00.048Z,25.60
2018-07-07T17:04:28.876Z,25.50
2018-07-07T17:09:26.987Z,25.40
2018-07-07T17:11:57.550Z,25.40
2018-07-07T17:14:26.355Z,25.30
2018-07-07T17:16:55.620Z,25.30
2018-07-07T17:19:25.098Z,25.20
2018-07-07T17:21:54.216Z,25.20
2018-07-07T17:24:23.276Z,25.10
2018-07-07T17:26:52.056Z,25.10
2018-07-07T17:29:20.954Z,25.00
2018-07-07T17:31:53.088Z,25.00
2018-07-07T17:34:22.164Z,24.90
2018-07-07T17:36:51.022Z,24.90
2018-07-07T17:39:19.794Z,24.80
2018-07-07T17:41:48.565Z,24.70
2018-07-07T17:44:18.043Z,24.70
2018-07-07T17:46:46.716Z,24.70
2018-07-07T17:49:16.277Z,24.70
2018-07-07T17:51:45.070Z,24.60
2018-07-07T17:54:14.025Z,24.50
2018-07-07T17:56:42.780Z,24.50
2018-07-07T17:59:11.546Z,24.40
2018-07-07T18:01:40.341Z,24.30
2018-07-07T18:04:09.816Z,24.30
2018-07-07T18:06:38.706Z,24.20
2018-07-07T18:09:07.916Z,24.20
2018-07-07T18:11:36.799Z,24.20
2018-07-07T18:14:05.581Z,24.20
2018-07-07T18:16:34.301Z,24.10
2018-07-07T18:19:03.043Z,24.10
2018-07-07T18:21:32.072Z,24.10
2018-07-07T18:24:01.658Z,24.10
2018-07-07T18:26:30.522Z,24.00
2018-07-07T18:28:59.364Z,24.00
2018-07-07T18:31:28.323Z,23.90
2018-07-07T18:33:57.286Z,23.80
2018-07-07T18:38:55.051Z,23.70
2018-07-07T18:41:24.064Z,23.70
2018-07-07T18:43:53.337Z,23.60
2018-07-07T18:46:22.492Z,23.50
2018-07-07T18:48:51.698Z,23.40
2018-07-07T18:51:20.732Z,23.40
2018-07-07T18:53:49.617Z,23.30
2018-07-07T18:56:18.409Z,23.20
2018-07-07T18:58:47.076Z,23.10
2018-07-07T19:01:15.758Z,23.10
2018-07-07T19:03:44.481Z,23.00
2018-07-07T19:06:13.284Z,22.90
2018-07-07T19:08:41.969Z,22.90
2018-07-07T19:11:11.306Z,22.80
2018-07-07T19:13:40.615Z,22.80
2018-07-07T19:16:09.969Z,22.70
2018-07-07T19:18:38.725Z,22.70
2018-07-07T19:21:12.955Z,22.60
2018-07-07T19:23:47.154Z,22.50
2018-07-07T19:26:21.262Z,22.50
2018-07-07T19:28:50.435Z,22.40
2018-07-07T19:31:19.104Z,22.40
2018-07-07T19:33:53.394Z,22.30
2018-07-07T19:36:28.280Z,22.30
2018-07-07T19:38:56.990Z,22.30
2018-07-07T19:41:25.655Z,22.20
2018-07-07T19:43:54.437Z,22.20
2018-07-07T19:46:23.586Z,22.10
2018-07-07T19:48:52.937Z,22.00
2018-07-07T19:51:21.628Z,21.90
2018-07-07T19:53:50.774Z,21.90
2018-07-07T19:56:19.939Z,21.90
2018-07-07T19:58:48.920Z,21.70
2018-07-07T20:01:17.666Z,21.60
2018-07-07T20:03:46.941Z,21.50
2018-07-07T20:06:17.381Z,21.50
2018-07-07T20:08:46.678Z,21.50
2018-07-07T20:11:15.369Z,21.40
2018-07-07T20:13:44.093Z,21.30
2018-07-07T20:16:19.791Z,21.20
2018-07-07T20:19:10.036Z,21.10
2018-07-07T20:21:50.637Z,21.00
2018-07-07T20:24:23.324Z,20.90
2018-07-07T20:26:57.721Z,20.70
2018-07-07T20:29:27.082Z,20.60
2018-07-07T20:31:56.225Z,20.60
2018-07-07T20:34:27.634Z,20.60
2018-07-07T20:36:58.170Z,20.50
2018-07-07T20:39:27.048Z,20.50
2018-07-07T20:41:56.171Z,20.40
2018-07-07T20:44:25.133Z,20.40
2018-07-07T20:46:55.356Z,20.30
2018-07-07T20:49:24.128Z,20.20
2018-07-07T20:51:53.749Z,20.20
2018-07-07T20:54:22.672Z,20.20
2018-07-07T20:56:51.415Z,20.10
2018-07-07T20:59:21.317Z,20.10
2018-07-07T21:01:50.085Z,20.10
2018-07-07T21:04:18.776Z,20.00
2018-07-07T21:06:47.519Z,20.00
2018-07-07T21:09:19.039Z,19.90
2018-07-07T21:11:48.128Z,19.90
2018-07-07T21:14:18.793Z,19.90
2018-07-07T21:16:47.464Z,19.90
2018-07-07T21:19:16.214Z,19.80
2018-07-07T21:21:45.041Z,19.90
2018-07-07T21:24:13.940Z,19.80
2018-07-07T21:26:42.645Z,19.80
2018-07-07T21:29:11.444Z,19.80
2018-07-07T21:31:43.437Z,19.70
2018-07-07T21:34:12.344Z,19.70
2018-07-07T21:36:41.007Z,19.70
2018-07-07T21:39:09.701Z,19.70
2018-07-07T21:41:38.396Z,19.60
2018-07-07T21:44:07.177Z,19.60
2018-07-07T21:46:35.929Z,19.60
2018-07-07T21:49:04.688Z,19.60
2018-07-07T21:51:33.417Z,19.50
2018-07-07T21:54:02.188Z,19.50
2018-07-07T21:56:30.897Z,19.50
2018-07-07T21:59:05.345Z,19.40
2018-07-07T22:01:54.039Z,19.40
2018-07-07T22:04:28.828Z,19.40
2018-07-07T22:07:03.161Z,19.40
2018-07-07T22:09:33.345Z,19.40
2018-07-07T22:12:02.065Z,19.40
2018-07-07T22:14:31.112Z,19.30
2018-07-07T22:17:01.255Z,19.30
2018-07-07T22:19:29.968Z,19.20
2018-07-07T22:22:00.589Z,19.20
2018-07-07T22:24:44.229Z,19.10
2018-07-07T22:27:18.718Z,19.10
2018-07-07T22:29:49.270Z,19.00
2018-07-07T22:32:20.994Z,19.00
2018-07-07T22:34:49.791Z,19.00
2018-07-07T22:39:48.779Z,18.90
2018-07-07T22:42:18.606Z,18.80
2018-07-07T22:44:48.514Z,18.80
2018-07-07T22:47:17.222Z,18.80
2018-07-07T22:49:46.083Z,18.80
2018-07-07T22:52:14.829Z,18.70
2018-07-07T22:54:43.536Z,18.60
2018-07-07T22:57:12.245Z,18.60
2018-07-07T22:59:40.958Z,18.50
2018-07-07T23:02:09.768Z,18.50
2018-07-07T23:04:43.635Z,18.50
2018-07-07T23:07:13.265Z,18.50
2018-07-07T23:09:42.852Z,18.40
2018-07-07T23:12:13.255Z,18.40
2018-07-07T23:14:42.962Z,18.40
2018-07-07T23:17:11.837Z,18.40
2018-07-07T23:19:40.826Z,18.40
2018-07-07T23:22:12.041Z,18.40
2018-07-07T23:24:42.618Z,18.30
2018-07-07T23:27:11.892Z,18.30
2018-07-07T23:29:40.557Z,18.30
2018-07-07T23:32:10.012Z,18.20
2018-07-07T23:34:41.228Z,18.10
2018-07-07T23:37:10.696Z,18.10
2018-07-07T23:39:39.420Z,18.00
2018-07-07T23:42:10.733Z,18.00
2018-07-07T23:44:39.871Z,17.90
2018-07-07T23:47:08.580Z,17.90
2018-07-07T23:49:37.304Z,17.80
2018-07-07T23:52:09.642Z,17.80
2018-07-07T23:54:38.351Z,17.80
2018-07-07T23:57:07.137Z,17.70
2018-07-07T23:59:35.818Z,17.70
